createdAt,value
2022-12-11T00:02:14.629Z,95348.19
2022-12-11T00:04:42.348Z,95353.25
2022-12-11T00:07:09.897Z,95353.25
2022-12-11T00:09:39.129Z,95345.25
2022-12-11T00:12:07.440Z,95351.38
2022-12-11T00:14:35.178Z,95337.91
2022-12-11T00:17:02.745Z,95343.06
2022-12-11T00:19:30.504Z,95349.47
2022-12-11T00:21:58.318Z,95341.44
2022-12-11T00:24:25.834Z,95342.66
2022-12-11T00:26:54.708Z,95352.38
2022-12-11T00:29:22.230Z,95351.00
2022-12-11T00:31:49.827Z,95349.56
2022-12-11T00:34:17.433Z,95355.78
2022-12-11T00:36:44.997Z,95367.53
2022-12-11T00:39:12.516Z,95362.22
2022-12-11T00:41:40.056Z,95357.59
2022-12-11T00:44:08.914Z,95375.00
2022-12-11T00:46:36.468Z,95371.69
2022-12-11T00:49:04.192Z,95375.69
2022-12-11T00:51:31.736Z,95375.41
2022-12-11T00:53:59.251Z,95374.50
2022-12-11T00:56:26.806Z,95372.13
2022-12-11T00:58:54.360Z,95375.31
2022-12-11T01:01:25.484Z,95376.81
2022-12-11T01:03:53.782Z,95387.75
2022-12-11T01:06:23.352Z,95391.28
2022-12-11T01:09:13.250Z,95398.00
2022-12-11T01:11:40.954Z,95407.91
2022-12-11T01:14:09.205Z,95406.22
2022-12-11T01:16:38.174Z,95410.59
2022-12-11T01:19:05.820Z,95404.03
2022-12-11T01:21:33.396Z,95413.53
2022-12-11T01:24:00.984Z,95414.50
2022-12-11T01:26:29.460Z,95409.72
2022-12-11T01:28:57.224Z,95411.75
2022-12-11T01:31:24.760Z,95405.97
2022-12-11T01:33:56.108Z,95407.47
2022-12-11T01:36:24.240Z,95405.22
2022-12-11T01:38:53.509Z,95414.41
2022-12-11T01:41:21.707Z,95412.75
2022-12-11T01:44:00.868Z,95410.44
2022-12-11T01:46:29.513Z,95412.66
2022-12-11T01:48:58.715Z,95412.88
2022-12-11T01:51:27.113Z,95408.81
2022-12-11T01:54:00.083Z,95413.00
2022-12-11T01:56:28.493Z,95411.66
2022-12-11T01:59:00.070Z,95411.88
2022-12-11T02:01:34.374Z,95416.03
2022-12-11T02:04:03.683Z,95414.97
2022-12-11T02:06:34.243Z,95417.31
2022-12-11T02:09:02.501Z,95408.28
2022-12-11T02:11:39.725Z,95409.22
2022-12-11T02:14:14.975Z,95413.09
2022-12-11T02:16:47.953Z,95415.69
2022-12-11T02:19:31.816Z,95406.56
2022-12-11T02:22:02.708Z,95407.63
2022-12-11T02:24:54.192Z,95410.66
2022-12-11T02:27:31.552Z,95408.69
2022-12-11T02:30:03.448Z,95403.81
2022-12-11T02:32:36.482Z,95398.47
2022-12-11T02:35:10.374Z,95388.38
2022-12-11T02:37:42.101Z,95389.91
2022-12-11T02:40:13.626Z,95389.63
2022-12-11T02:42:44.272Z,95386.31
2022-12-11T02:45:14.979Z,95382.88
2022-12-11T02:47:45.275Z,95388.44
2022-12-11T02:50:16.711Z,95382.78
2022-12-11T02:52:45.798Z,95381.69
2022-12-11T02:55:16.071Z,95391.31
2022-12-11T02:57:47.854Z,95383.22
2022-12-11T03:00:18.550Z,95383.09
2022-12-11T03:02:47.115Z,95392.28
2022-12-11T03:05:15.626Z,95394.75
2022-12-11T03:07:45.248Z,95391.56
2022-12-11T03:10:16.739Z,95389.94
2022-12-11T03:12:53.059Z,95385.75
2022-12-11T03:15:30.171Z,95385.16
2022-12-11T03:18:06.600Z,95391.44
2022-12-11T03:20:40.770Z,95392.38
2022-12-11T03:23:17.437Z,95392.38
2022-12-11T03:25:52.205Z,95394.25
2022-12-11T03:28:27.010Z,95397.50
2022-12-11T03:30:58.451Z,95399.16
2022-12-11T03:33:30.782Z,95401.25
2022-12-11T03:36:04.654Z,95405.38
2022-12-11T03:38:37.344Z,95404.88
2022-12-11T03:41:07.104Z,95404.97
2022-12-11T03:43:36.216Z,95401.34
2022-12-11T03:46:06.404Z,95396.00
2022-12-11T03:48:37.040Z,95390.41
2022-12-11T03:51:07.603Z,95392.03
2022-12-11T03:53:36.392Z,95403.88
2022-12-11T03:56:07.149Z,95400.75
2022-12-11T03:58:34.805Z,95397.84
2022-12-11T04:01:02.526Z,95406.00
2022-12-11T04:03:31.584Z,95404.97
2022-12-11T04:05:59.109Z,95411.41
2022-12-11T04:08:26.669Z,95412.44
2022-12-11T04:11:14.951Z,95424.69
2022-12-11T04:13:42.952Z,95421.28
2022-12-11T04:16:09.875Z,95426.38
2022-12-11T04:18:56.500Z,95424.91
2022-12-11T04:21:41.906Z,95410.38
2022-12-11T04:24:16.301Z,95407.25
2022-12-11T04:26:44.335Z,95411.41
2022-12-11T04:29:11.948Z,95410.19
2022-12-11T04:31:39.579Z,95413.50
2022-12-11T04:34:08.656Z,95421.78
2022-12-11T04:36:36.578Z,95416.81
2022-12-11T04:39:05.054Z,95413.06
2022-12-11T04:41:32.799Z,95423.88
2022-12-11T04:44:00.386Z,95423.22
2022-12-11T04:46:28.035Z,95404.78
2022-12-11T04:48:57.571Z,95417.72
2022-12-11T04:51:27.426Z,95417.41
2022-12-11T04:53:55.354Z,95415.53
2022-12-11T04:56:23.299Z,95421.56
2022-12-11T04:58:50.828Z,95417.38
2022-12-11T05:01:20.810Z,95422.38
2022-12-11T05:03:48.733Z,95417.78
2022-12-11T05:06:16.688Z,95411.44
2022-12-11T05:08:46.216Z,95409.06
2022-12-11T05:11:16.133Z,95410.13
2022-12-11T05:13:44.234Z,95397.47
2022-12-11T05:16:15.374Z,95401.66
2022-12-11T05:18:43.251Z,95399.13
2022-12-11T05:21:14.246Z,95404.75
2022-12-11T05:23:42.405Z,95395.84
2022-12-11T05:26:13.905Z,95393.03
2022-12-11T05:28:42.012Z,95391.78
2022-12-11T05:31:13.777Z,95385.69
2022-12-11T05:33:41.576Z,95391.28
2022-12-11T05:36:10.020Z,95385.44
2022-12-11T05:38:37.548Z,95389.81
2022-12-11T05:41:07.474Z,95397.50
2022-12-11T05:43:37.923Z,95398.44
2022-12-11T05:46:11.621Z,95390.56
2022-12-11T05:48:39.838Z,95392.31
2022-12-11T05:51:08.666Z,95385.75
2022-12-11T05:53:37.484Z,95390.44
2022-12-11T05:56:07.144Z,95390.22
2022-12-11T05:58:36.503Z,95384.22
2022-12-11T06:01:08.733Z,95390.88
2022-12-11T06:03:36.266Z,95386.38
2022-12-11T06:06:04.440Z,95394.88
2022-12-11T06:08:32.348Z,95396.91
2022-12-11T06:11:00.464Z,95396.44
2022-12-11T06:13:28.455Z,95412.59
2022-12-11T06:16:01.359Z,95407.00
2022-12-11T06:18:28.906Z,95408.50
2022-12-11T06:20:56.455Z,95406.69
2022-12-11T06:23:24.053Z,95412.78
2022-12-11T06:25:51.592Z,95415.19
2022-12-11T06:28:19.101Z,95411.72
2022-12-11T06:30:46.644Z,95405.16
2022-12-11T06:33:15.532Z,95410.88
2022-12-11T06:35:43.058Z,95400.59
2022-12-11T06:38:10.944Z,95400.34
2022-12-11T06:40:38.573Z,95402.09
2022-12-11T06:43:06.182Z,95406.13
2022-12-11T06:45:33.826Z,95415.47
2022-12-11T06:48:01.478Z,95411.25
2022-12-11T06:50:30.394Z,95402.22
2022-12-11T06:52:58.048Z,95400.75
2022-12-11T06:55:25.592Z,95406.41
2022-12-11T06:57:53.119Z,95402.97
2022-12-11T07:00:20.903Z,95399.25
2022-12-11T07:02:48.407Z,95399.97
2022-12-11T07:05:16.104Z,95401.00
2022-12-11T07:07:45.097Z,95399.78
2022-12-11T07:10:12.835Z,95397.38
2022-12-11T07:12:40.461Z,95405.38
2022-12-11T07:15:09.308Z,95406.75
2022-12-11T07:17:37.028Z,95396.06
2022-12-11T07:20:05.373Z,95403.63
2022-12-11T07:22:33.009Z,95405.78
2022-12-11T07:25:01.865Z,95408.72
2022-12-11T07:27:30.450Z,95399.69
2022-12-11T07:29:57.964Z,95400.28
2022-12-11T07:32:25.580Z,95401.25
2022-12-11T07:34:53.242Z,95392.22
2022-12-11T07:37:20.792Z,95396.88
2022-12-11T07:39:48.934Z,95392.94
2022-12-11T07:42:17.912Z,95387.75
2022-12-11T07:44:45.420Z,95384.00
2022-12-11T07:47:12.955Z,95382.53
2022-12-11T07:49:40.475Z,95378.81
2022-12-11T07:52:08.037Z,95384.53
2022-12-11T07:54:35.547Z,95384.59
2022-12-11T07:57:03.107Z,95386.69
2022-12-11T07:59:32.140Z,95390.63
2022-12-11T08:01:59.783Z,95395.81
2022-12-11T08:04:27.308Z,95394.06
2022-12-11T08:06:54.809Z,95395.63
2022-12-11T08:09:23.079Z,95391.38
2022-12-11T08:11:51.307Z,95404.72
2022-12-11T08:14:19.422Z,95406.47
2022-12-11T08:16:48.819Z,95414.72
2022-12-11T08:19:16.914Z,95422.81
2022-12-11T08:21:45.007Z,95413.50
2022-12-11T08:24:12.524Z,95416.50
2022-12-11T08:26:40.467Z,95415.34
2022-12-11T08:29:07.990Z,95413.09
2022-12-11T08:31:35.597Z,95418.09
2022-12-11T08:34:04.560Z,95408.25
2022-12-11T08:36:32.313Z,95416.22
2022-12-11T08:38:59.884Z,95414.78
2022-12-11T08:41:29.108Z,95419.97
2022-12-11T08:43:57.757Z,95422.06
2022-12-11T08:46:28.381Z,95420.13
2022-12-11T08:48:56.678Z,95422.22
2022-12-11T08:51:27.070Z,95417.22
2022-12-11T08:53:56.489Z,95411.41
2022-12-11T08:56:24.626Z,95399.53
2022-12-11T08:58:53.027Z,95396.88
2022-12-11T09:01:23.085Z,95405.94
2022-12-11T09:03:51.941Z,95407.50
2022-12-11T09:06:21.848Z,95394.56
2022-12-11T09:08:53.173Z,95404.53
2022-12-11T09:11:23.500Z,95415.03
2022-12-11T09:13:51.409Z,95413.53
2022-12-11T09:16:21.603Z,95409.25
2022-12-11T09:18:51.144Z,95414.09
2022-12-11T09:21:21.270Z,95405.25
2022-12-11T09:23:50.986Z,95415.09
2022-12-11T09:26:20.058Z,95420.88
2022-12-11T09:28:48.054Z,95419.34
2022-12-11T09:31:17.269Z,95411.50
2022-12-11T09:33:45.194Z,95418.47
2022-12-11T09:36:13.069Z,95424.91
2022-12-11T09:38:40.763Z,95421.19
2022-12-11T09:41:33.862Z,95412.66
2022-12-11T09:44:06.627Z,95408.09
2022-12-11T09:46:35.883Z,95409.72
2022-12-11T09:49:06.192Z,95406.06
2022-12-11T09:51:40.396Z,95404.06
2022-12-11T09:54:08.049Z,95399.91
2022-12-11T09:56:43.619Z,95406.78
2022-12-11T09:59:23.456Z,95393.66
2022-12-11T10:01:55.605Z,95389.50
2022-12-11T10:04:43.816Z,95379.63
2022-12-11T10:07:16.962Z,95383.81
2022-12-11T10:09:51.213Z,95372.00
2022-12-11T10:12:34.444Z,95375.50
2022-12-11T10:15:17.663Z,95375.72
2022-12-11T10:17:46.420Z,95372.19
2022-12-11T10:20:23.284Z,95376.47
2022-12-11T10:22:51.887Z,95373.44
2022-12-11T10:25:25.357Z,95372.63
2022-12-11T10:27:54.627Z,95368.22
2022-12-11T10:30:25.071Z,95371.84
2022-12-11T10:32:58.202Z,95373.66
2022-12-11T10:35:37.088Z,95376.22
2022-12-11T10:38:14.831Z,95367.03
2022-12-11T10:40:44.992Z,95370.13
2022-12-11T10:43:13.920Z,95360.91
2022-12-11T10:45:41.492Z,95357.13
2022-12-11T10:48:13.156Z,95359.09
2022-12-11T10:50:41.125Z,95345.88
2022-12-11T10:53:21.462Z,95351.00
2022-12-11T10:55:50.006Z,95343.44
2022-12-11T10:58:22.571Z,95350.72
2022-12-11T11:01:03.516Z,95344.16
2022-12-11T11:03:31.144Z,95344.03
2022-12-11T11:06:08.075Z,95342.56
2022-12-11T11:08:42.453Z,95343.50
2022-12-11T11:11:22.256Z,95337.75
2022-12-11T11:13:51.154Z,95339.53
2022-12-11T11:16:21.982Z,95338.91
2022-12-11T11:18:55.254Z,95336.19
2022-12-11T11:21:26.192Z,95333.78
2022-12-11T11:23:55.183Z,95322.88
2022-12-11T11:26:23.595Z,95328.03
2022-12-11T11:28:55.632Z,95327.63
2022-12-11T11:31:33.784Z,95308.47
2022-12-11T11:34:04.174Z,95304.94
2022-12-11T11:36:34.196Z,95304.19
2022-12-11T11:39:19.448Z,95295.41
2022-12-11T11:41:53.131Z,95295.56
2022-12-11T11:44:26.390Z,95285.63
2022-12-11T11:47:00.116Z,95279.16
2022-12-11T11:49:45.483Z,95273.34
2022-12-11T11:52:16.884Z,95274.88
2022-12-11T11:54:51.522Z,95281.78
2022-12-11T11:57:25.812Z,95277.09
2022-12-11T11:59:59.139Z,95281.28
2022-12-11T12:02:26.757Z,95281.88
2022-12-11T12:04:54.670Z,95273.72
2022-12-11T12:07:33.535Z,95279.97
2022-12-11T12:10:11.491Z,95278.59
2022-12-11T12:12:47.918Z,95268.78
2022-12-11T12:15:25.483Z,95272.69
2022-12-11T12:17:56.328Z,95263.00
2022-12-11T12:20:35.938Z,95260.59
2022-12-11T12:23:27.964Z,95252.22
2022-12-11T12:26:04.202Z,95254.25
2022-12-11T12:28:39.292Z,95254.63
2022-12-11T12:31:22.623Z,95259.38
2022-12-11T12:34:01.662Z,95256.06
2022-12-11T12:36:39.650Z,95264.31
2022-12-11T12:39:21.631Z,95262.78
2022-12-11T12:42:01.375Z,95262.09
2022-12-11T12:44:42.908Z,95261.06
2022-12-11T12:47:15.282Z,95263.91
2022-12-11T12:49:46.508Z,95252.69
2022-12-11T12:52:17.735Z,95261.50
2022-12-11T12:55:03.625Z,95253.41
2022-12-11T12:57:32.020Z,95254.56
2022-12-11T12:59:59.537Z,95261.03
2022-12-11T13:02:28.679Z,95261.19
2022-12-11T13:04:59.690Z,95253.91
2022-12-11T13:07:30.664Z,95244.63
2022-12-11T13:10:01.330Z,95249.16
2022-12-11T13:12:40.689Z,95245.94
2022-12-11T13:15:24.700Z,95246.81
2022-12-11T13:17:53.978Z,95242.03
2022-12-11T13:20:23.955Z,95249.34
2022-12-11T13:22:57.885Z,95254.09
2022-12-11T13:25:29.408Z,95254.25
2022-12-11T13:28:07.598Z,95259.22
2022-12-11T13:30:35.536Z,95264.31
2022-12-11T13:33:07.250Z,95260.16
2022-12-11T13:35:36.270Z,95263.03
2022-12-11T13:38:09.211Z,95257.16
2022-12-11T13:40:43.063Z,95255.50
2022-12-11T13:43:19.050Z,95255.94
2022-12-11T13:45:50.443Z,95260.47
2022-12-11T13:48:24.232Z,95269.00
2022-12-11T13:50:53.243Z,95268.69
2022-12-11T13:53:22.443Z,95268.91
2022-12-11T13:55:57.756Z,95275.00
2022-12-11T13:58:25.748Z,95278.41
2022-12-11T14:01:07.475Z,95275.78
2022-12-11T14:03:36.779Z,95279.88
2022-12-11T14:06:05.130Z,95286.00
2022-12-11T14:08:37.148Z,95284.19
2022-12-11T14:11:06.100Z,95280.38
2022-12-11T14:13:36.350Z,95279.16
2022-12-11T14:16:04.987Z,95276.81
2022-12-11T14:18:36.104Z,95281.59
2022-12-11T14:21:07.286Z,95284.41
2022-12-11T14:23:36.218Z,95281.31
2022-12-11T14:26:14.392Z,95285.69
2022-12-11T14:28:43.891Z,95270.59
2022-12-11T14:31:17.018Z,95278.78
2022-12-11T14:33:49.029Z,95286.44
2022-12-11T14:36:18.564Z,95284.34
2022-12-11T14:38:49.226Z,95284.34
2022-12-11T14:41:20.522Z,95280.56
2022-12-11T14:43:51.062Z,95283.72
2022-12-11T14:46:23.502Z,95285.19
2022-12-11T14:49:00.743Z,95288.78
2022-12-11T14:51:35.834Z,95281.91
2022-12-11T14:54:05.095Z,95281.28
2022-12-11T14:56:33.368Z,95279.03
2022-12-11T14:59:03.636Z,95276.69
2022-12-11T15:01:33.627Z,95275.91
2022-12-11T15:04:06.932Z,95274.97
2022-12-11T15:06:43.641Z,95277.59
2022-12-11T15:09:19.246Z,95278.00
2022-12-11T15:11:47.846Z,95276.03
2022-12-11T15:14:17.759Z,95279.44
2022-12-11T15:16:45.865Z,95277.00
2022-12-11T15:19:22.000Z,95272.59
2022-12-11T15:21:52.034Z,95275.81
2022-12-11T15:24:26.990Z,95264.09
2022-12-11T15:26:59.557Z,95270.88
2022-12-11T15:29:33.614Z,95277.97
2022-12-11T15:32:03.398Z,95279.31
2022-12-11T15:34:35.546Z,95277.22
2022-12-11T15:37:04.431Z,95273.63
2022-12-11T15:39:31.947Z,95280.66
2022-12-11T15:41:59.531Z,95281.19
2022-12-11T15:44:27.082Z,95282.97
2022-12-11T15:46:54.629Z,95283.91
2022-12-11T15:49:24.145Z,95294.53
2022-12-11T15:51:52.613Z,95287.97
2022-12-11T15:54:21.489Z,95296.72
2022-12-11T15:56:49.012Z,95294.00
2022-12-11T15:59:22.827Z,95295.38
2022-12-11T16:01:50.392Z,95293.94
2022-12-11T16:04:17.931Z,95287.47
2022-12-11T16:06:46.845Z,95290.69
2022-12-11T16:09:14.378Z,95294.69
2022-12-11T16:11:43.297Z,95295.59
2022-12-11T16:14:10.805Z,95302.28
2022-12-11T16:16:38.340Z,95302.59
2022-12-11T16:19:05.874Z,95305.63
2022-12-11T16:21:33.419Z,95304.97
2022-12-11T16:24:00.933Z,95308.56
2022-12-11T16:26:28.481Z,95300.47
2022-12-11T16:28:57.323Z,95309.19
2022-12-11T16:31:24.960Z,95315.91
2022-12-11T16:33:52.512Z,95313.91
2022-12-11T16:36:21.299Z,95315.31
2022-12-11T16:38:54.006Z,95316.00
2022-12-11T16:41:22.837Z,95317.69
2022-12-11T16:43:50.513Z,95312.47
2022-12-11T16:46:20.164Z,95312.25
2022-12-11T16:48:48.056Z,95312.34
2022-12-11T16:51:15.998Z,95309.75
2022-12-11T16:53:43.527Z,95308.75
2022-12-11T16:56:11.089Z,95315.09
2022-12-11T16:58:40.458Z,95321.88
2022-12-11T17:01:12.047Z,95320.44
2022-12-11T17:03:42.904Z,95314.66
2022-12-11T17:06:12.153Z,95320.38
2022-12-11T17:08:40.091Z,95322.53
2022-12-11T17:11:08.682Z,95322.53
2022-12-11T17:13:36.508Z,95321.84
2022-12-11T17:16:05.895Z,95322.06
2022-12-11T17:18:33.917Z,95326.13
2022-12-11T17:21:06.663Z,95323.06
2022-12-11T17:23:34.305Z,95314.16
2022-12-11T17:26:02.529Z,95322.66
2022-12-11T17:28:30.469Z,95330.47
2022-12-11T17:30:58.517Z,95324.03
2022-12-11T17:33:26.062Z,95317.69
2022-12-11T17:35:53.704Z,95318.44
2022-12-11T17:38:22.562Z,95324.38
2022-12-11T17:40:50.140Z,95323.97
2022-12-11T17:43:17.726Z,95330.41
2022-12-11T17:45:46.959Z,95327.81
2022-12-11T17:48:15.674Z,95327.19
2022-12-11T17:50:44.559Z,95329.72
2022-12-11T17:53:12.872Z,95329.00
2022-12-11T17:55:43.340Z,95331.22
2022-12-11T17:58:11.512Z,95333.31
2022-12-11T18:00:39.967Z,95332.94
2022-12-11T18:03:07.492Z,95334.16
2022-12-11T18:05:35.232Z,95337.69
2022-12-11T18:08:02.874Z,95339.56
2022-12-11T18:10:30.394Z,95345.38
2022-12-11T18:12:59.252Z,95341.75
2022-12-11T18:15:27.066Z,95343.63
2022-12-11T18:17:57.748Z,95352.66
2022-12-11T18:20:25.797Z,95353.03
2022-12-11T18:22:53.368Z,95349.75
2022-12-11T18:25:21.094Z,95347.72
2022-12-11T18:27:48.732Z,95340.91
2022-12-11T18:30:17.931Z,95344.09
2022-12-11T18:32:45.930Z,95341.63
2022-12-11T18:35:14.255Z,95338.09
2022-12-11T18:37:42.236Z,95334.53
2022-12-11T18:40:11.828Z,95335.78
2022-12-11T18:42:39.603Z,95347.03
2022-12-11T18:45:08.060Z,95340.19
2022-12-11T18:47:37.304Z,95345.78
2022-12-11T18:50:08.134Z,95350.38
2022-12-11T18:52:36.347Z,95346.22
2022-12-11T18:55:05.569Z,95351.63
2022-12-11T18:57:33.280Z,95355.34
2022-12-11T19:00:07.240Z,95346.81
2022-12-11T19:02:35.210Z,95352.44
2022-12-11T19:05:04.502Z,95358.16
2022-12-11T19:07:32.034Z,95355.84
2022-12-11T19:09:59.561Z,95355.34
2022-12-11T19:12:27.127Z,95361.28
2022-12-11T19:14:54.694Z,95357.22
2022-12-11T19:17:22.219Z,95358.28
2022-12-11T19:19:50.294Z,95358.56
2022-12-11T19:22:19.182Z,95359.19
2022-12-11T19:24:46.699Z,95357.63
2022-12-11T19:27:14.298Z,95351.81
2022-12-11T19:29:41.998Z,95358.28
2022-12-11T19:32:09.611Z,95361.34
2022-12-11T19:34:38.379Z,95362.41
2022-12-11T19:37:06.077Z,95363.03
2022-12-11T19:39:35.307Z,95354.53
2022-12-11T19:42:02.857Z,95351.41
2022-12-11T19:44:30.404Z,95346.63
2022-12-11T19:46:58.050Z,95351.63
2022-12-11T19:49:25.637Z,95348.69
2022-12-11T19:51:53.234Z,95356.59
2022-12-11T19:54:20.770Z,95362.72
2022-12-11T19:56:49.654Z,95354.13
2022-12-11T19:59:18.036Z,95360.75
2022-12-11T20:01:47.929Z,95364.06
2022-12-11T20:04:17.683Z,95360.13
2022-12-11T20:06:47.365Z,95361.19
2022-12-11T20:09:15.688Z,95371.75
2022-12-11T20:11:45.391Z,95372.28
2022-12-11T20:14:22.430Z,95368.66
2022-12-11T20:17:10.496Z,95372.28
2022-12-11T20:19:38.931Z,95370.72
2022-12-11T20:22:06.796Z,95370.28
2022-12-11T20:24:34.523Z,95374.56
2022-12-11T20:27:02.071Z,95370.31
2022-12-11T20:29:31.007Z,95368.00
2022-12-11T20:31:59.731Z,95367.59
2022-12-11T20:34:27.563Z,95361.19
2022-12-11T20:36:56.194Z,95354.13
2022-12-11T20:39:23.821Z,95362.63
2022-12-11T20:41:51.423Z,95362.00
2022-12-11T20:44:19.988Z,95358.69
2022-12-11T20:46:48.881Z,95360.16
2022-12-11T20:49:16.484Z,95356.41
2022-12-11T20:51:44.044Z,95356.81
2022-12-11T20:54:11.662Z,95360.75
2022-12-11T20:56:39.423Z,95363.13
2022-12-11T20:59:06.976Z,95356.91
2022-12-11T21:01:35.077Z,95357.00
2022-12-11T21:04:04.193Z,95365.41
2022-12-11T21:06:34.086Z,95359.81
2022-12-11T21:09:07.403Z,95355.75
2022-12-11T21:11:35.223Z,95365.94
2022-12-11T21:14:02.738Z,95360.50
2022-12-11T21:16:30.688Z,95349.75
2022-12-11T21:18:59.157Z,95351.63
2022-12-11T21:21:28.106Z,95343.94
2022-12-11T21:23:55.683Z,95340.16
2022-12-11T21:26:23.239Z,95345.28
2022-12-11T21:28:51.310Z,95341.84
2022-12-11T21:31:20.337Z,95341.97
2022-12-11T21:33:48.756Z,95341.03
2022-12-11T21:36:17.013Z,95337.28
2022-12-11T21:38:47.524Z,95350.97
2022-12-11T21:41:17.850Z,95332.19
2022-12-11T21:44:40.889Z,95347.25
2022-12-11T21:46:34.941Z,95342.34
2022-12-11T21:49:02.535Z,95345.69
2022-12-11T21:51:36.924Z,95338.72
2022-12-11T21:54:10.176Z,95337.94
2022-12-11T21:56:37.731Z,95337.28
2022-12-11T21:59:05.756Z,95346.97
2022-12-11T22:01:38.050Z,95345.53
2022-12-11T22:04:06.475Z,95332.66
2022-12-11T22:06:34.492Z,95336.19
2022-12-11T22:09:02.238Z,95337.16
2022-12-11T22:11:33.424Z,95329.00
2022-12-11T22:14:01.243Z,95335.81
2022-12-11T22:16:29.374Z,95342.09
2022-12-11T22:18:57.062Z,95339.34
2022-12-11T22:21:25.569Z,95333.16
2022-12-11T22:23:53.143Z,95334.38
2022-12-11T22:26:23.102Z,95335.84
2022-12-11T22:28:52.089Z,95330.94
2022-12-11T22:31:22.482Z,95327.94
2022-12-11T22:33:51.139Z,95335.03
2022-12-11T22:36:18.931Z,95329.78
2022-12-11T22:38:47.059Z,95329.63
2022-12-11T22:41:24.525Z,95328.13
2022-12-11T22:43:54.008Z,95335.72
2022-12-11T22:46:23.944Z,95336.75
2022-12-11T22:48:52.029Z,95343.69
2022-12-11T22:51:19.632Z,95339.88
2022-12-11T22:53:47.173Z,95339.66
2022-12-11T22:56:15.179Z,95341.81
2022-12-11T22:58:43.134Z,95337.56
2022-12-11T23:01:14.279Z,95344.88
2022-12-11T23:03:42.378Z,95348.19
2022-12-11T23:06:13.316Z,95351.31
2022-12-11T23:08:41.575Z,95346.09
2022-12-11T23:11:12.931Z,95343.66
2022-12-11T23:13:41.326Z,95347.84
2022-12-11T23:16:09.352Z,95348.66
2022-12-11T23:18:38.562Z,95340.72
2022-12-11T23:21:06.311Z,95344.38
2022-12-11T23:23:33.950Z,95343.78
2022-12-11T23:26:01.649Z,95332.88
2022-12-11T23:28:29.246Z,95348.41
2022-12-11T23:30:56.832Z,95349.97
2022-12-11T23:33:24.411Z,95358.19
2022-12-11T23:35:53.267Z,95352.72
2022-12-11T23:38:20.781Z,95356.75
2022-12-11T23:40:48.366Z,95357.53
2022-12-11T23:43:16.038Z,95361.44
2022-12-11T23:45:44.225Z,95363.63
2022-12-11T23:48:12.577Z,95364.66
2022-12-11T23:50:40.903Z,95366.22
2022-12-11T23:53:09.844Z,95364.78
2022-12-11T23:55:39.671Z,95364.06
2022-12-11T23:58:07.351Z,95366.56
